Aigle Des Mers — FO4883 — position and weather

sailwx.info

Track history (hours):
 
Tides and Currents Weather Stations Pressure Air Temp Water Temp Dewpoint Dewpoint Depression Visibility Wind Speed Wind Dir Waves Ship Positions

Aigle Des Mers

Last reported at 2014-Oct-29 22:29 UTC. Time now 2014-Oct-30 16:42 UTC.
Position N 48°06' W 004°19'.

Length 16 m.

Type: Fishing. MMSI: 227318010.

Date/timePositionNaut miles runAvg speedWind from/ knotsBaromVisibWave heightAir tempDewpointWater temp
2014-Oct-29 22:29N 48°06' W 004°19'0 0.2
2014-Oct-29 21:33N 48°06' W 004°19'7 6.8
2014-Oct-29 20:34N 48°10' W 004°28'0 0.5
2014-Oct-29 19:34N 48°10' W 004°27'2 2.1
2014-Oct-29 18:33N 48°12' W 004°27'1 1.3
2014-Oct-29 17:33N 48°13' W 004°28'8 7.8
2014-Oct-29 16:33N 48°08' W 004°20'2 0.0
2014-Oct-27 21:28N 48°06' W 004°19'6 7.1
2014-Oct-27 20:33N 48°10' W 004°27'2 1.8
2014-Oct-27 19:34N 48°08' W 004°27'2 2.3
2014-Oct-27 18:34N 48°06' W 004°29'3 2.9
2014-Oct-27 17:33N 48°08' W 004°26'4 4.3
2014-Oct-27 16:34N 48°07' W 004°20'2 0.1
2014-Oct-27 00:33N 48°06' W 004°19'6 6.0
2014-Oct-26 23:34N 48°09' W 004°27'2 2.1
2014-Oct-26 22:34N 48°07' W 004°29'5 5.0
2014-Oct-26 21:34N 48°08' W 004°37'6 6.1
2014-Oct-26 20:34N 48°13' W 004°41'7 6.8
2014-Oct-26 19:33N 48°12' W 004°51'7 6.9
2014-Oct-26 18:33N 48°06' W 004°45'9 8.7
2014-Oct-26 17:33N 48°06' W 004°32'8 8.5
2014-Oct-26 16:33N 48°06' W 004°19'  
2014-Oct-22 23:34N 48°06' W 004°19'4 4.3
2014-Oct-22 22:33N 48°09' W 004°24'1 1.1
2014-Oct-22 21:33N 48°10' W 004°24'5 5.4
2014-Oct-22 20:34N 48°08' W 004°32'4 4.0
2014-Oct-22 19:33N 48°08' W 004°38'9 8.5
2014-Oct-22 18:33N 48°11' W 004°50'1 0.9
2014-Oct-22 17:33N 48°10' W 004°50'9 9.0
2014-Oct-22 16:34N 48°08' W 004°37'9 9.0
2014-Oct-22 15:32N 48°07' W 004°23'3 0.1
2014-Oct-20 20:14N 48°06' W 004°19'4 5.6
2014-Oct-20 19:33N 48°07' W 004°25'9 8.8
2014-Oct-20 18:33N 48°05' W 004°38'3 2.8
2014-Oct-20 17:33N 48°08' W 004°36'12 8.2
2014-Oct-20 16:09N 48°06' W 004°19'0 0.2
2014-Oct-20 15:33N 48°06' W 004°19'0 0.0
2014-Oct-20 14:33N 48°06' W 004°19'0 0.0
2014-Oct-20 13:33N 48°06' W 004°19'0 0.0
2014-Oct-20 12:33N 48°06' W 004°19'0 0.0
2014-Oct-20 11:33N 48°06' W 004°19'0 0.0
2014-Oct-20 10:33N 48°06' W 004°19'0 0.0
2014-Oct-20 09:33N 48°06' W 004°19'0 0.0
2014-Oct-20 08:33N 48°06' W 004°19'0 0.0
2014-Oct-20 07:33N 48°06' W 004°19'0 0.0
2014-Oct-20 06:33N 48°06' W 004°19'0 0.0
2014-Oct-20 05:33N 48°06' W 004°19'0 0.0
2014-Oct-20 04:33N 48°06' W 004°19'0 0.0
2014-Oct-20 03:34N 48°06' W 004°19'0 0.0
2014-Oct-20 02:34N 48°06' W 004°19'1 1.4
2014-Oct-20 01:33N 48°07' W 004°19'5 5.1
2014-Oct-20 00:33N 48°11' W 004°24'7 6.9
2014-Oct-19 23:33N 48°08' W 004°33'3 3.4
2014-Oct-19 22:34N 48°08' W 004°38'  
Track history (hours):
 
Tides and Currents Weather Stations Pressure Air Temp Water Temp Dewpoint Dewpoint Depression Visibility Wind Speed Wind Dir Waves Ship Positions

Aigle Des Mers

Last reported at 2014-Oct-29 22:29 UTC. Time now 2014-Oct-30 16:42 UTC.
Position N 48°06' W 004°19'.

Length 16 m.

Type: Fishing. MMSI: 227318010.

Date/timePositionNaut miles runAvg speedWind from/ knotsBaromVisibWave heightAir tempDewpointWater temp
2014-Oct-29 22:29N 48°06' W 004°19'0 0.2
2014-Oct-29 21:33N 48°06' W 004°19'7 6.8
2014-Oct-29 20:34N 48°10' W 004°28'0 0.5
2014-Oct-29 19:34N 48°10' W 004°27'2 2.1
2014-Oct-29 18:33N 48°12' W 004°27'1 1.3
2014-Oct-29 17:33N 48°13' W 004°28'8 7.8
2014-Oct-29 16:33N 48°08' W 004°20'2 0.0
2014-Oct-27 21:28N 48°06' W 004°19'6 7.1
2014-Oct-27 20:33N 48°10' W 004°27'2 1.8
2014-Oct-27 19:34N 48°08' W 004°27'2 2.3
2014-Oct-27 18:34N 48°06' W 004°29'3 2.9
2014-Oct-27 17:33N 48°08' W 004°26'4 4.3
2014-Oct-27 16:34N 48°07' W 004°20'2 0.1
2014-Oct-27 00:33N 48°06' W 004°19'6 6.0
2014-Oct-26 23:34N 48°09' W 004°27'2 2.1
2014-Oct-26 22:34N 48°07' W 004°29'5 5.0
2014-Oct-26 21:34N 48°08' W 004°37'6 6.1
2014-Oct-26 20:34N 48°13' W 004°41'7 6.8
2014-Oct-26 19:33N 48°12' W 004°51'7 6.9
2014-Oct-26 18:33N 48°06' W 004°45'9 8.7
2014-Oct-26 17:33N 48°06' W 004°32'8 8.5
2014-Oct-26 16:33N 48°06' W 004°19'  
2014-Oct-22 23:34N 48°06' W 004°19'4 4.3
2014-Oct-22 22:33N 48°09' W 004°24'1 1.1
2014-Oct-22 21:33N 48°10' W 004°24'5 5.4
2014-Oct-22 20:34N 48°08' W 004°32'4 4.0
2014-Oct-22 19:33N 48°08' W 004°38'9 8.5
2014-Oct-22 18:33N 48°11' W 004°50'1 0.9
2014-Oct-22 17:33N 48°10' W 004°50'9 9.0
2014-Oct-22 16:34N 48°08' W 004°37'9 9.0
2014-Oct-22 15:32N 48°07' W 004°23'3 0.1
2014-Oct-20 20:14N 48°06' W 004°19'4 5.6
2014-Oct-20 19:33N 48°07' W 004°25'9 8.8
2014-Oct-20 18:33N 48°05' W 004°38'3 2.8
2014-Oct-20 17:33N 48°08' W 004°36'12 8.2
2014-Oct-20 16:09N 48°06' W 004°19'0 0.2
2014-Oct-20 15:33N 48°06' W 004°19'0 0.0
2014-Oct-20 14:33N 48°06' W 004°19'0 0.0
2014-Oct-20 13:33N 48°06' W 004°19'0 0.0
2014-Oct-20 12:33N 48°06' W 004°19'0 0.0
2014-Oct-20 11:33N 48°06' W 004°19'0 0.0
2014-Oct-20 10:33N 48°06' W 004°19'0 0.0
2014-Oct-20 09:33N 48°06' W 004°19'0 0.0
2014-Oct-20 08:33N 48°06' W 004°19'0 0.0
2014-Oct-20 07:33N 48°06' W 004°19'0 0.0
2014-Oct-20 06:33N 48°06' W 004°19'0 0.0
2014-Oct-20 05:33N 48°06' W 004°19'0 0.0
2014-Oct-20 04:33N 48°06' W 004°19'0 0.0
2014-Oct-20 03:34N 48°06' W 004°19'0 0.0
2014-Oct-20 02:34N 48°06' W 004°19'1 1.4
2014-Oct-20 01:33N 48°07' W 004°19'5 5.1
2014-Oct-20 00:33N 48°11' W 004°24'7 6.9
2014-Oct-19 23:33N 48°08' W 004°33'3 3.4
2014-Oct-19 22:34N 48°08' W 004°38'  

Dump ship's entire track history